sensor_id;sensor_type;location;lat;lon;timestamp;P1;durP1;ratioP1;P2;durP2;ratioP2
15573;SDS011;7888;46.748;8.102;2022-08-14T00:00:41;1.00;;;0.90;;
15573;SDS011;7888;46.748;8.102;2022-08-14T00:03:14;1.00;;;0.90;;
15573;SDS011;7888;46.748;8.102;2022-08-14T00:05:45;0.73;;;0.73;;
15573;SDS011;7888;46.748;8.102;2022-08-14T00:08:11;2.40;;;0.90;;
15573;SDS011;7888;46.748;8.102;2022-08-14T00:10:37;1.27;;;0.90;;
15573;SDS011;7888;46.748;8.102;2022-08-14T00:13:04;1.00;;;0.80;;
15573;SDS011;7888;46.748;8.102;2022-08-14T00:15:32;0.77;;;0.70;;
15573;SDS011;7888;46.748;8.102;2022-08-14T00:18:02;1.13;;;1.02;;
15573;SDS011;7888;46.748;8.102;2022-08-14T00:20:31;1.35;;;1.10;;
15573;SDS011;7888;46.748;8.102;2022-08-14T00:23:00;1.80;;;0.93;;
15573;SDS011;7888;46.748;8.102;2022-08-14T00:25:26;0.95;;;0.90;;
15573;SDS011;7888;46.748;8.102;2022-08-14T00:27:53;0.80;;;0.80;;
15573;SDS011;7888;46.748;8.102;2022-08-14T00:30:20;1.00;;;0.90;;
15573;SDS011;7888;46.748;8.102;2022-08-14T00:32:46;1.10;;;1.00;;
15573;SDS011;7888;46.748;8.102;2022-08-14T00:35:12;0.90;;;0.90;;
15573;SDS011;7888;46.748;8.102;2022-08-14T00:37:42;2.00;;;0.82;;
15573;SDS011;7888;46.748;8.102;2022-08-14T00:40:11;0.80;;;0.80;;
15573;SDS011;7888;46.748;8.102;2022-08-14T00:42:41;1.77;;;1.00;;
15573;SDS011;7888;46.748;8.102;2022-08-14T00:45:09;1.65;;;0.95;;
15573;SDS011;7888;46.748;8.102;2022-08-14T00:47:37;1.00;;;0.98;;
15573;SDS011;7888;46.748;8.102;2022-08-14T00:50:05;1.05;;;0.90;;
15573;SDS011;7888;46.748;8.102;2022-08-14T00:52:35;0.82;;;0.82;;
15573;SDS011;7888;46.748;8.102;2022-08-14T00:55:02;0.90;;;0.90;;
15573;SDS011;7888;46.748;8.102;2022-08-14T00:57:32;0.80;;;0.80;;
15573;SDS011;7888;46.748;8.102;2022-08-14T01:00:00;1.38;;;0.90;;
15573;SDS011;7888;46.748;8.102;2022-08-14T01:02:32;1.10;;;1.00;;
15573;SDS011;7888;46.748;8.102;2022-08-14T01:05:00;1.17;;;0.88;;
15573;SDS011;7888;46.748;8.102;2022-08-14T01:07:31;0.80;;;0.80;;
15573;SDS011;7888;46.748;8.102;2022-08-14T01:10:00;1.58;;;0.70;;
15573;SDS011;7888;46.748;8.102;2022-08-14T01:12:31;1.02;;;0.90;;
15573;SDS011;7888;46.748;8.102;2022-08-14T01:14:58;1.20;;;1.10;;
15573;SDS011;7888;46.748;8.102;2022-08-14T01:17:27;0.80;;;0.80;;
15573;SDS011;7888;46.748;8.102;2022-08-14T01:20:14;0.98;;;0.82;;
15573;SDS011;7888;46.748;8.102;2022-08-14T01:22:59;1.50;;;0.90;;
15573;SDS011;7888;46.748;8.102;2022-08-14T01:25:25;0.90;;;0.82;;
15573;SDS011;7888;46.748;8.102;2022-08-14T01:27:51;1.00;;;0.82;;
15573;SDS011;7888;46.748;8.102;2022-08-14T01:30:19;0.80;;;0.80;;
15573;SDS011;7888;46.748;8.102;2022-08-14T01:32:49;0.77;;;0.77;;
15573;SDS011;7888;46.748;8.102;2022-08-14T01:35:16;1.25;;;0.93;;
15573;SDS011;7888;46.748;8.102;2022-08-14T01:37:43;3.00;;;1.40;;
15573;SDS011;7888;46.748;8.102;2022-08-14T01:40:12;0.82;;;0.80;;
15573;SDS011;7888;46.748;8.102;2022-08-14T01:42:40;0.88;;;0.88;;
15573;SDS011;7888;46.748;8.102;2022-08-14T01:45:07;1.35;;;0.90;;
15573;SDS011;7888;46.748;8.102;2022-08-14T01:47:37;1.83;;;1.00;;
15573;SDS011;7888;46.748;8.102;2022-08-14T01:50:04;0.90;;;0.90;;
15573;SDS011;7888;46.748;8.102;2022-08-14T01:52:32;1.17;;;1.00;;
15573;SDS011;7888;46.748;8.102;2022-08-14T01:55:04;2.33;;;0.95;;
15573;SDS011;7888;46.748;8.102;2022-08-14T01:57:36;0.85;;;0.85;;
15573;SDS011;7888;46.748;8.102;2022-08-14T02:00:04;0.80;;;0.80;;
15573;SDS011;7888;46.748;8.102;2022-08-14T02:02:43;1.08;;;0.80;;
15573;SDS011;7888;46.748;8.102;2022-08-14T02:05:12;0.80;;;0.80;;
15573;SDS011;7888;46.748;8.102;2022-08-14T02:07:39;1.08;;;0.98;;
15573;SDS011;7888;46.748;8.102;2022-08-14T02:10:09;1.38;;;0.75;;
15573;SDS011;7888;46.748;8.102;2022-08-14T02:12:37;0.80;;;0.80;;
15573;SDS011;7888;46.748;8.102;2022-08-14T02:15:05;1.45;;;1.13;;
15573;SDS011;7888;46.748;8.102;2022-08-14T02:17:33;1.08;;;0.93;;
15573;SDS011;7888;46.748;8.102;2022-08-14T02:19:59;0.93;;;0.90;;
15573;SDS011;7888;46.748;8.102;2022-08-14T02:22:25;1.55;;;0.90;;
15573;SDS011;7888;46.748;8.102;2022-08-14T02:24:51;1.05;;;0.98;;
15573;SDS011;7888;46.748;8.102;2022-08-14T02:27:17;1.08;;;0.85;;
15573;SDS011;7888;46.748;8.102;2022-08-14T02:29:44;0.80;;;0.80;;
15573;SDS011;7888;46.748;8.102;2022-08-14T02:32:11;2.28;;;1.00;;
15573;SDS011;7888;46.748;8.102;2022-08-14T02:34:40;0.75;;;0.75;;
15573;SDS011;7888;46.748;8.102;2022-08-14T02:37:08;1.00;;;0.90;;
15573;SDS011;7888;46.748;8.102;2022-08-14T02:39:40;1.10;;;1.00;;
15573;SDS011;7888;46.748;8.102;2022-08-14T02:42:10;0.80;;;0.77;;
15573;SDS011;7888;46.748;8.102;2022-08-14T02:44:40;1.23;;;0.90;;
15573;SDS011;7888;46.748;8.102;2022-08-14T02:47:09;0.93;;;0.90;;
15573;SDS011;7888;46.748;8.102;2022-08-14T02:49:35;1.05;;;0.80;;
15573;SDS011;7888;46.748;8.102;2022-08-14T02:52:02;2.15;;;0.90;;
15573;SDS011;7888;46.748;8.102;2022-08-14T02:54:31;1.02;;;1.00;;
15573;SDS011;7888;46.748;8.102;2022-08-14T02:56:59;0.82;;;0.82;;
15573;SDS011;7888;46.748;8.102;2022-08-14T02:59:30;1.27;;;1.00;;
15573;SDS011;7888;46.748;8.102;2022-08-14T03:01:58;1.17;;;1.13;;
15573;SDS011;7888;46.748;8.102;2022-08-14T03:04:24;1.25;;;1.00;;
15573;SDS011;7888;46.748;8.102;2022-08-14T03:06:52;1.08;;;0.80;;
15573;SDS011;7888;46.748;8.102;2022-08-14T03:09:18;0.95;;;0.95;;
15573;SDS011;7888;46.748;8.102;2022-08-14T03:11:44;0.85;;;0.82;;
15573;SDS011;7888;46.748;8.102;2022-08-14T03:14:10;0.90;;;0.90;;
15573;SDS011;7888;46.748;8.102;2022-08-14T03:16:37;1.83;;;1.10;;
15573;SDS011;7888;46.748;8.102;2022-08-14T03:19:05;1.00;;;1.00;;
15573;SDS011;7888;46.748;8.102;2022-08-14T03:21:34;1.02;;;0.90;;
15573;SDS011;7888;46.748;8.102;2022-08-14T03:24:01;1.10;;;0.90;;
15573;SDS011;7888;46.748;8.102;2022-08-14T03:26:32;1.70;;;1.38;;
15573;SDS011;7888;46.748;8.102;2022-08-14T03:28:57;1.33;;;1.02;;
15573;SDS011;7888;46.748;8.102;2022-08-14T03:31:25;1.02;;;0.90;;
15573;SDS011;7888;46.748;8.102;2022-08-14T03:33:51;3.13;;;0.98;;
15573;SDS011;7888;46.748;8.102;2022-08-14T03:36:17;1.05;;;1.00;;
15573;SDS011;7888;46.748;8.102;2022-08-14T03:38:45;0.77;;;0.77;;
15573;SDS011;7888;46.748;8.102;2022-08-14T03:41:16;1.58;;;0.88;;
15573;SDS011;7888;46.748;8.102;2022-08-14T03:43:49;1.00;;;0.85;;
15573;SDS011;7888;46.748;8.102;2022-08-14T03:46:21;0.90;;;0.90;;
15573;SDS011;7888;46.748;8.102;2022-08-14T03:48:50;0.80;;;0.80;;
15573;SDS011;7888;46.748;8.102;2022-08-14T03:51:18;1.15;;;1.05;;
15573;SDS011;7888;46.748;8.102;2022-08-14T03:53:45;0.90;;;0.90;;
15573;SDS011;7888;46.748;8.102;2022-08-14T03:56:12;0.80;;;0.80;;
15573;SDS011;7888;46.748;8.102;2022-08-14T03:58:44;0.80;;;0.80;;
15573;SDS011;7888;46.748;8.102;2022-08-14T04:01:14;0.80;;;0.80;;
15573;SDS011;7888;46.748;8.102;2022-08-14T04:03:45;1.73;;;0.90;;
15573;SDS011;7888;46.748;8.102;2022-08-14T04:06:12;0.80;;;0.80;;
15573;SDS011;7888;46.748;8.102;2022-08-14T04:08:41;1.83;;;1.00;;
15573;SDS011;7888;46.748;8.102;2022-08-14T04:11:08;1.92;;;0.98;;
15573;SDS011;7888;46.748;8.102;2022-08-14T04:13:35;1.35;;;1.00;;
15573;SDS011;7888;46.748;8.102;2022-08-14T04:16:05;1.15;;;1.00;;
15573;SDS011;7888;46.748;8.102;2022-08-14T04:18:45;0.80;;;0.80;;
15573;SDS011;7888;46.748;8.102;2022-08-14T04:21:15;0.90;;;0.90;;
15573;SDS011;7888;46.748;8.102;2022-08-14T04:23:42;0.80;;;0.80;;
15573;SDS011;7888;46.748;8.102;2022-08-14T04:26:12;1.90;;;0.90;;
15573;SDS011;7888;46.748;8.102;2022-08-14T04:28:42;0.95;;;0.95;;
15573;SDS011;7888;46.748;8.102;2022-08-14T04:31:09;1.00;;;1.00;;
15573;SDS011;7888;46.748;8.102;2022-08-14T04:33:36;0.80;;;0.80;;
15573;SDS011;7888;46.748;8.102;2022-08-14T04:36:02;0.95;;;0.90;;
15573;SDS011;7888;46.748;8.102;2022-08-14T04:38:28;1.02;;;0.95;;
15573;SDS011;7888;46.748;8.102;2022-08-14T04:41:13;1.60;;;1.25;;
15573;SDS011;7888;46.748;8.102;2022-08-14T04:44:17;1.17;;;0.85;;
15573;SDS011;7888;46.748;8.102;2022-08-14T04:46:44;1.13;;;0.90;;
15573;SDS011;7888;46.748;8.102;2022-08-14T04:49:29;3.28;;;1.10;;
15573;SDS011;7888;46.748;8.102;2022-08-14T04:51:55;2.13;;;0.90;;
15573;SDS011;7888;46.748;8.102;2022-08-14T04:54:22;1.00;;;0.90;;
15573;SDS011;7888;46.748;8.102;2022-08-14T04:56:51;0.88;;;0.88;;
15573;SDS011;7888;46.748;8.102;2022-08-14T04:59:20;1.05;;;0.93;;
15573;SDS011;7888;46.748;8.102;2022-08-14T05:01:47;2.30;;;0.95;;
15573;SDS011;7888;46.748;8.102;2022-08-14T05:04:13;1.52;;;1.00;;
15573;SDS011;7888;46.748;8.102;2022-08-14T05:06:39;1.05;;;1.00;;
15573;SDS011;7888;46.748;8.102;2022-08-14T05:09:05;0.90;;;0.90;;
15573;SDS011;7888;46.748;8.102;2022-08-14T05:11:32;1.77;;;1.05;;
15573;SDS011;7888;46.748;8.102;2022-08-14T05:14:00;0.85;;;0.85;;
15573;SDS011;7888;46.748;8.102;2022-08-14T05:16:27;0.95;;;0.90;;
15573;SDS011;7888;46.748;8.102;2022-08-14T05:18:55;1.30;;;1.20;;
15573;SDS011;7888;46.748;8.102;2022-08-14T05:21:21;1.13;;;1.10;;
15573;SDS011;7888;46.748;8.102;2022-08-14T05:23:48;2.03;;;1.20;;
15573;SDS011;7888;46.748;8.102;2022-08-14T05:26:15;0.80;;;0.80;;
15573;SDS011;7888;46.748;8.102;2022-08-14T05:28:45;1.17;;;0.95;;
15573;SDS011;7888;46.748;8.102;2022-08-14T05:31:12;1.10;;;1.00;;
15573;SDS011;7888;46.748;8.102;2022-08-14T05:33:43;1.65;;;1.15;;
15573;SDS011;7888;46.748;8.102;2022-08-14T05:36:11;1.20;;;1.10;;
15573;SDS011;7888;46.748;8.102;2022-08-14T05:38:39;1.25;;;1.15;;
15573;SDS011;7888;46.748;8.102;2022-08-14T05:41:14;1.05;;;1.05;;
15573;SDS011;7888;46.748;8.102;2022-08-14T05:43:44;1.08;;;0.90;;
15573;SDS011;7888;46.748;8.102;2022-08-14T05:46:12;1.17;;;1.08;;
15573;SDS011;7888;46.748;8.102;2022-08-14T05:48:50;1.02;;;0.93;;
15573;SDS011;7888;46.748;8.102;2022-08-14T05:51:19;1.58;;;1.10;;
15573;SDS011;7888;46.748;8.102;2022-08-14T05:53:47;0.98;;;0.90;;
15573;SDS011;7888;46.748;8.102;2022-08-14T05:56:14;1.00;;;1.00;;
15573;SDS011;7888;46.748;8.102;2022-08-14T05:58:40;1.20;;;1.00;;
15573;SDS011;7888;46.748;8.102;2022-08-14T06:01:05;1.02;;;0.90;;
15573;SDS011;7888;46.748;8.102;2022-08-14T06:03:33;1.75;;;1.15;;
15573;SDS011;7888;46.748;8.102;2022-08-14T06:05:59;1.60;;;1.20;;
15573;SDS011;7888;46.748;8.102;2022-08-14T06:08:26;2.10;;;1.17;;
15573;SDS011;7888;46.748;8.102;2022-08-14T06:10:56;1.48;;;1.20;;
15573;SDS011;7888;46.748;8.102;2022-08-14T06:13:27;0.90;;;0.90;;
15573;SDS011;7888;46.748;8.102;2022-08-14T06:15:59;0.95;;;0.93;;
15573;SDS011;7888;46.748;8.102;2022-08-14T06:18:24;1.10;;;1.00;;
15573;SDS011;7888;46.748;8.102;2022-08-14T06:20:51;1.02;;;0.93;;
15573;SDS011;7888;46.748;8.102;2022-08-14T06:23:18;1.45;;;0.90;;
15573;SDS011;7888;46.748;8.102;2022-08-14T06:25:44;1.38;;;1.10;;
15573;SDS011;7888;46.748;8.102;2022-08-14T06:28:17;1.10;;;1.00;;
15573;SDS011;7888;46.748;8.102;2022-08-14T06:30:45;0.80;;;0.80;;
15573;SDS011;7888;46.748;8.102;2022-08-14T06:33:12;1.20;;;1.10;;
15573;SDS011;7888;46.748;8.102;2022-08-14T06:35:39;2.63;;;1.35;;
15573;SDS011;7888;46.748;8.102;2022-08-14T06:38:05;1.17;;;1.05;;
15573;SDS011;7888;46.748;8.102;2022-08-14T06:40:32;0.98;;;0.93;;
15573;SDS011;7888;46.748;8.102;2022-08-14T06:43:05;1.67;;;1.13;;
15573;SDS011;7888;46.748;8.102;2022-08-14T06:45:35;1.73;;;1.20;;
15573;SDS011;7888;46.748;8.102;2022-08-14T06:48:10;1.25;;;1.15;;
15573;SDS011;7888;46.748;8.102;2022-08-14T06:50:40;1.20;;;1.10;;
15573;SDS011;7888;46.748;8.102;2022-08-14T06:53:08;1.00;;;1.00;;
15573;SDS011;7888;46.748;8.102;2022-08-14T06:55:36;2.28;;;1.27;;
15573;SDS011;7888;46.748;8.102;2022-08-14T06:58:02;1.08;;;0.95;;
15573;SDS011;7888;46.748;8.102;2022-08-14T07:00:29;2.45;;;1.23;;
15573;SDS011;7888;46.748;8.102;2022-08-14T07:02:55;1.20;;;1.10;;
15573;SDS011;7888;46.748;8.102;2022-08-14T07:05:40;2.65;;;1.13;;
15573;SDS011;7888;46.748;8.102;2022-08-14T07:08:15;3.53;;;1.15;;
15573;SDS011;7888;46.748;8.102;2022-08-14T07:10:54;2.00;;;1.00;;
15573;SDS011;7888;46.748;8.102;2022-08-14T07:13:24;1.17;;;1.00;;
15573;SDS011;7888;46.748;8.102;2022-08-14T07:15:53;1.20;;;1.10;;
15573;SDS011;7888;46.748;8.102;2022-08-14T07:18:27;1.50;;;1.05;;
15573;SDS011;7888;46.748;8.102;2022-08-14T07:20:56;2.50;;;0.93;;
15573;SDS011;7888;46.748;8.102;2022-08-14T07:23:25;1.40;;;1.10;;
15573;SDS011;7888;46.748;8.102;2022-08-14T07:25:52;4.82;;;1.30;;
15573;SDS011;7888;46.748;8.102;2022-08-14T07:28:22;1.55;;;1.20;;
15573;SDS011;7888;46.748;8.102;2022-08-14T07:31:04;1.00;;;0.95;;
15573;SDS011;7888;46.748;8.102;2022-08-14T07:33:39;1.20;;;1.10;;
15573;SDS011;7888;46.748;8.102;2022-08-14T07:36:13;1.27;;;1.17;;
15573;SDS011;7888;46.748;8.102;2022-08-14T07:38:40;1.48;;;1.20;;
15573;SDS011;7888;46.748;8.102;2022-08-14T07:41:08;1.13;;;1.10;;
15573;SDS011;7888;46.748;8.102;2022-08-14T07:43:37;0.95;;;0.95;;
15573;SDS011;7888;46.748;8.102;2022-08-14T07:46:05;2.85;;;1.02;;
15573;SDS011;7888;46.748;8.102;2022-08-14T07:48:31;1.00;;;1.00;;
15573;SDS011;7888;46.748;8.102;2022-08-14T07:51:05;2.83;;;1.23;;
15573;SDS011;7888;46.748;8.102;2022-08-14T07:53:32;1.15;;;0.90;;
15573;SDS011;7888;46.748;8.102;2022-08-14T07:55:58;1.42;;;1.10;;
15573;SDS011;7888;46.748;8.102;2022-08-14T07:58:24;1.05;;;1.02;;
15573;SDS011;7888;46.748;8.102;2022-08-14T08:00:53;1.08;;;1.05;;
15573;SDS011;7888;46.748;8.102;2022-08-14T08:03:20;1.60;;;1.30;;
15573;SDS011;7888;46.748;8.102;2022-08-14T08:05:51;1.25;;;1.10;;
15573;SDS011;7888;46.748;8.102;2022-08-14T08:08:17;2.00;;;1.00;;
15573;SDS011;7888;46.748;8.102;2022-08-14T08:10:45;1.27;;;1.20;;
15573;SDS011;7888;46.748;8.102;2022-08-14T08:13:15;2.15;;;1.20;;
15573;SDS011;7888;46.748;8.102;2022-08-14T08:15:44;1.63;;;1.10;;
15573;SDS011;7888;46.748;8.102;2022-08-14T08:18:20;3.95;;;1.40;;
15573;SDS011;7888;46.748;8.102;2022-08-14T08:20:51;1.02;;;1.00;;
15573;SDS011;7888;46.748;8.102;2022-08-14T08:23:20;2.38;;;1.30;;
15573;SDS011;7888;46.748;8.102;2022-08-14T08:25:48;1.30;;;1.13;;
15573;SDS011;7888;46.748;8.102;2022-08-14T08:28:16;1.35;;;1.10;;
15573;SDS011;7888;46.748;8.102;2022-08-14T08:30:48;3.25;;;1.30;;
15573;SDS011;7888;46.748;8.102;2022-08-14T08:33:17;1.05;;;1.05;;
15573;SDS011;7888;46.748;8.102;2022-08-14T08:35:45;1.13;;;1.02;;
15573;SDS011;7888;46.748;8.102;2022-08-14T08:38:16;1.00;;;1.00;;
15573;SDS011;7888;46.748;8.102;2022-08-14T08:40:47;0.98;;;0.98;;
15573;SDS011;7888;46.748;8.102;2022-08-14T08:45:55;2.38;;;1.30;;
15573;SDS011;7888;46.748;8.102;2022-08-14T08:48:22;2.03;;;1.20;;
15573;SDS011;7888;46.748;8.102;2022-08-14T08:50:56;2.78;;;1.05;;
15573;SDS011;7888;46.748;8.102;2022-08-14T08:53:31;1.17;;;1.10;;
15573;SDS011;7888;46.748;8.102;2022-08-14T08:56:00;1.02;;;1.00;;
15573;SDS011;7888;46.748;8.102;2022-08-14T08:58:27;1.92;;;1.00;;
15573;SDS011;7888;46.748;8.102;2022-08-14T09:00:55;3.47;;;1.20;;
15573;SDS011;7888;46.748;8.102;2022-08-14T09:03:24;1.40;;;1.30;;
15573;SDS011;7888;46.748;8.102;2022-08-14T09:08:29;0.98;;;0.98;;
15573;SDS011;7888;46.748;8.102;2022-08-14T09:11:08;0.93;;;0.93;;
15573;SDS011;7888;46.748;8.102;2022-08-14T09:13:35;4.47;;;1.20;;
15573;SDS011;7888;46.748;8.102;2022-08-14T09:16:01;1.75;;;1.02;;
15573;SDS011;7888;46.748;8.102;2022-08-14T09:18:28;0.98;;;0.90;;
15573;SDS011;7888;46.748;8.102;2022-08-14T09:20:55;0.90;;;0.90;;
15573;SDS011;7888;46.748;8.102;2022-08-14T09:23:21;1.20;;;1.10;;
15573;SDS011;7888;46.748;8.102;2022-08-14T09:25:49;0.95;;;0.90;;
15573;SDS011;7888;46.748;8.102;2022-08-14T09:28:17;1.10;;;1.10;;
15573;SDS011;7888;46.748;8.102;2022-08-14T09:30:46;0.90;;;0.90;;
15573;SDS011;7888;46.748;8.102;2022-08-14T09:39:36;1.00;;;0.90;;
15573;SDS011;7888;46.748;8.102;2022-08-14T09:42:34;1.10;;;0.90;;
15573;SDS011;7888;46.748;8.102;2022-08-14T09:53:04;2.10;;;1.20;;
15573;SDS011;7888;46.748;8.102;2022-08-14T09:55:33;1.13;;;1.08;;
15573;SDS011;7888;46.748;8.102;2022-08-14T09:58:14;1.40;;;1.10;;
15573;SDS011;7888;46.748;8.102;2022-08-14T10:00:47;1.25;;;1.10;;
15573;SDS011;7888;46.748;8.102;2022-08-14T10:03:30;3.45;;;1.60;;
15573;SDS011;7888;46.748;8.102;2022-08-14T10:06:06;1.00;;;1.00;;
15573;SDS011;7888;46.748;8.102;2022-08-14T10:08:45;2.33;;;1.20;;
15573;SDS011;7888;46.748;8.102;2022-08-14T10:13:56;1.08;;;0.93;;
15573;SDS011;7888;46.748;8.102;2022-08-14T10:16:24;1.05;;;1.00;;
15573;SDS011;7888;46.748;8.102;2022-08-14T10:19:11;1.40;;;1.30;;
15573;SDS011;7888;46.748;8.102;2022-08-14T10:21:40;2.30;;;1.10;;
15573;SDS011;7888;46.748;8.102;2022-08-14T10:24:10;1.20;;;1.10;;
15573;SDS011;7888;46.748;8.102;2022-08-14T10:29:43;1.38;;;1.27;;
15573;SDS011;7888;46.748;8.102;2022-08-14T10:32:15;1.20;;;1.10;;
15573;SDS011;7888;46.748;8.102;2022-08-14T10:34:41;2.33;;;1.15;;
15573;SDS011;7888;46.748;8.102;2022-08-14T10:37:08;2.63;;;1.48;;
15573;SDS011;7888;46.748;8.102;2022-08-14T10:39:40;1.20;;;1.10;;
15573;SDS011;7888;46.748;8.102;2022-08-14T10:42:21;1.25;;;1.20;;
15573;SDS011;7888;46.748;8.102;2022-08-14T10:44:47;1.00;;;1.00;;
15573;SDS011;7888;46.748;8.102;2022-08-14T10:47:16;1.30;;;1.20;;
15573;SDS011;7888;46.748;8.102;2022-08-14T10:49:54;1.35;;;1.25;;
15573;SDS011;7888;46.748;8.102;2022-08-14T10:52:24;1.30;;;1.20;;
15573;SDS011;7888;46.748;8.102;2022-08-14T10:55:05;1.20;;;1.10;;
15573;SDS011;7888;46.748;8.102;2022-08-14T10:57:32;1.67;;;1.00;;
15573;SDS011;7888;46.748;8.102;2022-08-14T11:00:10;1.35;;;1.30;;
15573;SDS011;7888;46.748;8.102;2022-08-14T11:02:42;1.33;;;1.00;;
15573;SDS011;7888;46.748;8.102;2022-08-14T11:05:09;1.20;;;1.10;;
15573;SDS011;7888;46.748;8.102;2022-08-14T11:10:21;1.30;;;1.20;;
15573;SDS011;7888;46.748;8.102;2022-08-14T11:12:54;1.42;;;1.17;;
15573;SDS011;7888;46.748;8.102;2022-08-14T11:15:22;1.20;;;1.10;;
15573;SDS011;7888;46.748;8.102;2022-08-14T11:17:52;1.45;;;1.35;;
15573;SDS011;7888;46.748;8.102;2022-08-14T11:20:21;4.45;;;1.20;;
15573;SDS011;7888;46.748;8.102;2022-08-14T11:22:51;1.38;;;1.13;;
15573;SDS011;7888;46.748;8.102;2022-08-14T11:25:19;1.92;;;1.17;;
15573;SDS011;7888;46.748;8.102;2022-08-14T11:27:49;1.48;;;1.17;;
15573;SDS011;7888;46.748;8.102;2022-08-14T11:30:19;1.20;;;1.10;;
15573;SDS011;7888;46.748;8.102;2022-08-14T11:32:49;1.50;;;1.40;;
15573;SDS011;7888;46.748;8.102;2022-08-14T11:35:19;1.27;;;1.17;;
15573;SDS011;7888;46.748;8.102;2022-08-14T11:37:49;2.15;;;1.25;;
15573;SDS011;7888;46.748;8.102;2022-08-14T11:40:27;1.42;;;1.23;;
15573;SDS011;7888;46.748;8.102;2022-08-14T11:42:58;1.08;;;1.05;;
15573;SDS011;7888;46.748;8.102;2022-08-14T11:45:31;0.98;;;0.95;;
15573;SDS011;7888;46.748;8.102;2022-08-14T11:47:59;2.28;;;1.17;;
15573;SDS011;7888;46.748;8.102;2022-08-14T11:50:39;1.48;;;1.30;;
15573;SDS011;7888;46.748;8.102;2022-08-14T11:53:05;2.53;;;1.40;;
15573;SDS011;7888;46.748;8.102;2022-08-14T11:56:01;1.20;;;1.10;;
15573;SDS011;7888;46.748;8.102;2022-08-14T11:58:31;1.40;;;1.15;;
15573;SDS011;7888;46.748;8.102;2022-08-14T12:01:01;1.20;;;1.13;;
15573;SDS011;7888;46.748;8.102;2022-08-14T12:03:48;1.17;;;1.17;;
15573;SDS011;7888;46.748;8.102;2022-08-14T12:06:15;1.20;;;1.10;;
15573;SDS011;7888;46.748;8.102;2022-08-14T12:08:44;1.27;;;1.10;;
15573;SDS011;7888;46.748;8.102;2022-08-14T12:11:12;1.50;;;1.30;;
15573;SDS011;7888;46.748;8.102;2022-08-14T12:13:42;1.85;;;1.10;;
15573;SDS011;7888;46.748;8.102;2022-08-14T12:16:10;1.48;;;1.38;;
15573;SDS011;7888;46.748;8.102;2022-08-14T12:18:41;1.20;;;1.10;;
15573;SDS011;7888;46.748;8.102;2022-08-14T12:21:19;1.40;;;1.10;;
15573;SDS011;7888;46.748;8.102;2022-08-14T12:24:09;1.95;;;1.10;;
15573;SDS011;7888;46.748;8.102;2022-08-14T12:26:35;1.40;;;1.30;;
15573;SDS011;7888;46.748;8.102;2022-08-14T12:31:38;1.55;;;1.20;;
15573;SDS011;7888;46.748;8.102;2022-08-14T12:34:08;1.42;;;1.30;;
15573;SDS011;7888;46.748;8.102;2022-08-14T12:36:37;1.75;;;1.10;;
15573;SDS011;7888;46.748;8.102;2022-08-14T12:39:04;1.50;;;1.40;;
15573;SDS011;7888;46.748;8.102;2022-08-14T12:41:52;3.33;;;1.33;;
15573;SDS011;7888;46.748;8.102;2022-08-14T12:44:34;1.90;;;1.20;;
15573;SDS011;7888;46.748;8.102;2022-08-14T12:47:12;3.15;;;1.42;;
15573;SDS011;7888;46.748;8.102;2022-08-14T12:49:52;3.22;;;1.48;;
15573;SDS011;7888;46.748;8.102;2022-08-14T12:52:52;1.17;;;1.08;;
15573;SDS011;7888;46.748;8.102;2022-08-14T12:55:14;2.78;;;1.30;;
15573;SDS011;7888;46.748;8.102;2022-08-14T12:57:45;1.20;;;1.20;;
15573;SDS011;7888;46.748;8.102;2022-08-14T13:00:17;1.73;;;1.40;;
15573;SDS011;7888;46.748;8.102;2022-08-14T13:02:46;1.40;;;1.30;;
15573;SDS011;7888;46.748;8.102;2022-08-14T13:05:16;2.15;;;1.30;;
15573;SDS011;7888;46.748;8.102;2022-08-14T13:07:48;1.50;;;1.40;;
15573;SDS011;7888;46.748;8.102;2022-08-14T13:10:16;1.20;;;1.10;;
15573;SDS011;7888;46.748;8.102;2022-08-14T13:12:45;1.52;;;1.20;;
15573;SDS011;7888;46.748;8.102;2022-08-14T13:15:13;1.40;;;1.30;;
15573;SDS011;7888;46.748;8.102;2022-08-14T13:17:43;1.90;;;1.40;;
15573;SDS011;7888;46.748;8.102;2022-08-14T13:20:16;1.95;;;1.48;;
15573;SDS011;7888;46.748;8.102;2022-08-14T13:22:45;2.00;;;1.23;;
15573;SDS011;7888;46.748;8.102;2022-08-14T13:25:12;7.88;;;1.45;;
15573;SDS011;7888;46.748;8.102;2022-08-14T13:27:42;3.85;;;1.45;;
15573;SDS011;7888;46.748;8.102;2022-08-14T13:30:10;1.52;;;1.30;;
15573;SDS011;7888;46.748;8.102;2022-08-14T13:32:37;1.33;;;1.23;;
15573;SDS011;7888;46.748;8.102;2022-08-14T13:35:08;3.78;;;1.48;;
15573;SDS011;7888;46.748;8.102;2022-08-14T13:37:36;1.27;;;1.13;;
15573;SDS011;7888;46.748;8.102;2022-08-14T13:40:05;1.60;;;1.50;;
15573;SDS011;7888;46.748;8.102;2022-08-14T13:42:32;1.40;;;1.30;;
15573;SDS011;7888;46.748;8.102;2022-08-14T13:45:00;1.38;;;1.27;;
15573;SDS011;7888;46.748;8.102;2022-08-14T13:47:30;1.30;;;1.20;;
15573;SDS011;7888;46.748;8.102;2022-08-14T13:49:57;1.60;;;1.50;;
15573;SDS011;7888;46.748;8.102;2022-08-14T13:52:38;1.48;;;1.30;;
15573;SDS011;7888;46.748;8.102;2022-08-14T13:55:09;1.40;;;1.30;;
15573;SDS011;7888;46.748;8.102;2022-08-14T13:57:40;3.72;;;1.65;;
15573;SDS011;7888;46.748;8.102;2022-08-14T14:00:11;1.63;;;1.50;;
15573;SDS011;7888;46.748;8.102;2022-08-14T14:02:40;1.50;;;1.40;;
15573;SDS011;7888;46.748;8.102;2022-08-14T14:05:09;1.83;;;1.23;;
15573;SDS011;7888;46.748;8.102;2022-08-14T14:07:42;1.30;;;1.20;;
15573;SDS011;7888;46.748;8.102;2022-08-14T14:10:13;1.40;;;1.30;;
15573;SDS011;7888;46.748;8.102;2022-08-14T14:12:42;2.15;;;1.30;;
15573;SDS011;7888;46.748;8.102;2022-08-14T14:15:10;1.60;;;1.30;;
15573;SDS011;7888;46.748;8.102;2022-08-14T14:17:40;1.58;;;1.30;;
15573;SDS011;7888;46.748;8.102;2022-08-14T14:20:08;3.33;;;1.33;;
15573;SDS011;7888;46.748;8.102;2022-08-14T14:22:42;2.33;;;1.50;;
15573;SDS011;7888;46.748;8.102;2022-08-14T14:25:13;1.30;;;1.20;;
15573;SDS011;7888;46.748;8.102;2022-08-14T14:27:44;1.67;;;1.58;;
15573;SDS011;7888;46.748;8.102;2022-08-14T14:30:13;1.83;;;1.10;;
15573;SDS011;7888;46.748;8.102;2022-08-14T14:32:42;1.38;;;1.17;;
15573;SDS011;7888;46.748;8.102;2022-08-14T14:35:11;1.48;;;1.27;;
15573;SDS011;7888;46.748;8.102;2022-08-14T14:37:40;1.30;;;1.20;;
15573;SDS011;7888;46.748;8.102;2022-08-14T14:40:08;3.08;;;1.30;;
15573;SDS011;7888;46.748;8.102;2022-08-14T14:42:48;1.33;;;1.20;;
15573;SDS011;7888;46.748;8.102;2022-08-14T14:45:20;1.58;;;1.48;;
15573;SDS011;7888;46.748;8.102;2022-08-14T14:47:48;1.50;;;1.40;;
15573;SDS011;7888;46.748;8.102;2022-08-14T14:50:20;2.00;;;1.50;;
15573;SDS011;7888;46.748;8.102;2022-08-14T14:52:47;2.33;;;1.40;;
15573;SDS011;7888;46.748;8.102;2022-08-14T14:55:14;1.52;;;1.40;;
15573;SDS011;7888;46.748;8.102;2022-08-14T14:57:45;1.67;;;1.42;;
15573;SDS011;7888;46.748;8.102;2022-08-14T15:00:13;2.67;;;1.45;;
15573;SDS011;7888;46.748;8.102;2022-08-14T15:02:45;2.42;;;1.50;;
15573;SDS011;7888;46.748;8.102;2022-08-14T15:05:15;1.85;;;1.73;;
15573;SDS011;7888;46.748;8.102;2022-08-14T15:07:43;2.08;;;1.65;;
15573;SDS011;7888;46.748;8.102;2022-08-14T15:10:14;4.85;;;1.77;;
15573;SDS011;7888;46.748;8.102;2022-08-14T15:12:42;1.52;;;1.40;;
15573;SDS011;7888;46.748;8.102;2022-08-14T15:15:09;2.95;;;1.85;;
15573;SDS011;7888;46.748;8.102;2022-08-14T15:17:37;1.70;;;1.40;;
15573;SDS011;7888;46.748;8.102;2022-08-14T15:20:05;2.05;;;1.58;;
15573;SDS011;7888;46.748;8.102;2022-08-14T15:22:35;1.52;;;1.42;;
15573;SDS011;7888;46.748;8.102;2022-08-14T15:25:04;1.65;;;1.50;;
15573;SDS011;7888;46.748;8.102;2022-08-14T15:27:31;3.42;;;1.75;;
15573;SDS011;7888;46.748;8.102;2022-08-14T15:29:58;1.95;;;1.85;;
15573;SDS011;7888;46.748;8.102;2022-08-14T15:32:24;1.77;;;1.65;;
15573;SDS011;7888;46.748;8.102;2022-08-14T15:34:50;1.95;;;1.40;;
15573;SDS011;7888;46.748;8.102;2022-08-14T15:37:16;1.63;;;1.52;;
15573;SDS011;7888;46.748;8.102;2022-08-14T15:39:42;1.90;;;1.25;;
15573;SDS011;7888;46.748;8.102;2022-08-14T15:42:08;2.97;;;1.63;;
15573;SDS011;7888;46.748;8.102;2022-08-14T15:44:34;1.83;;;1.30;;
15573;SDS011;7888;46.748;8.102;2022-08-14T15:47:01;1.42;;;1.33;;